Time;durP1;ratioP1;P1;durP2;ratioP2;P2;SDS_P1;SDS_P2;PMS_P1;PMS_P2;Temp;Humidity;BMP_temperature;BMP_pressure;BME280_temperature;BME280_humidity;BME280_pressure;Samples;Min_cycle;Max_cycle;Signal;HPM_P1;HPM_P2
2023/06/04 00:00:42;;;;;;;1.60;0.90;;;16.80;38.20;;;;;;4991605;28;20590;-76
2023/06/04 00:03:08;;;;;;;2.87;1.00;;;16.80;38.40;;;;;;5008753;28;20604;-76
2023/06/04 00:05:33;;;;;;;2.17;0.80;;;16.70;38.40;;;;;;5009019;28;20648;-76
2023/06/04 00:07:59;;;;;;;2.23;0.90;;;16.70;38.50;;;;;;5007901;28;20186;-76
2023/06/04 00:10:25;;;;;;;1.83;0.80;;;16.60;38.70;;;;;;4995391;28;20190;-76
2023/06/04 00:12:51;;;;;;;1.80;0.97;;;16.60;38.80;;;;;;5008892;28;20582;-76
2023/06/04 00:15:16;;;;;;;2.37;1.27;;;16.50;38.80;;;;;;4993472;28;20232;-76
2023/06/04 00:17:42;;;;;;;1.77;1.00;;;16.50;38.90;;;;;;4992764;28;20179;-76
2023/06/04 00:20:09;;;;;;;2.70;1.00;;;16.40;38.90;;;;;;4995548;28;20210;-76
2023/06/04 00:22:35;;;;;;;1.95;0.93;;;16.40;39.10;;;;;;4976319;28;20605;-76
2023/06/04 00:25:00;;;;;;;2.87;1.03;;;16.40;39.20;;;;;;4991880;28;20207;-76
2023/06/04 00:27:26;;;;;;;3.20;1.10;;;16.30;39.20;;;;;;4975989;28;20186;-76
2023/06/04 00:29:52;;;;;;;2.00;1.00;;;16.30;39.30;;;;;;5007917;28;21255;-76
2023/06/04 00:32:18;;;;;;;4.53;1.03;;;16.20;39.40;;;;;;4992200;28;20175;-76
2023/06/04 00:34:49;;;;;;;2.00;1.00;;;16.20;39.40;;;;;;5013386;28;20175;-76
2023/06/04 00:37:15;;;;;;;3.03;1.20;;;16.10;39.40;;;;;;4995087;28;20178;-76
2023/06/04 00:39:41;;;;;;;2.03;0.90;;;16.10;39.60;;;;;;5011203;28;20644;-76
2023/06/04 00:42:07;;;;;;;2.37;1.30;;;16.10;39.70;;;;;;4991190;28;20248;-76
2023/06/04 00:44:33;;;;;;;3.00;1.00;;;16.00;39.70;;;;;;4975874;28;20242;-76
2023/06/04 00:46:59;;;;;;;2.10;1.00;;;16.00;39.90;;;;;;4992961;28;21353;-76
2023/06/04 00:49:25;;;;;;;2.35;1.00;;;15.90;39.90;;;;;;4991958;28;20621;-76
2023/06/04 00:51:51;;;;;;;2.13;0.90;;;15.90;40.00;;;;;;4992483;28;20437;-76
2023/06/04 00:54:17;;;;;;;1.90;0.90;;;15.80;40.00;;;;;;4991946;28;20179;-76
2023/06/04 00:56:44;;;;;;;2.33;1.13;;;15.80;40.10;;;;;;4978579;28;20175;-75
2023/06/04 00:59:10;;;;;;;1.85;0.82;;;15.80;40.20;;;;;;4991443;28;20261;-75
2023/06/04 01:02:15;;;;;;;1.80;1.00;;;15.80;40.30;;;;;;5007639;28;20232;-76
2023/06/04 01:04:57;;;;;;;1.98;1.00;;;15.70;40.70;;;;;;5010602;28;20245;-76
2023/06/04 01:07:24;;;;;;;2.72;2.00;;;15.70;40.70;;;;;;5010573;28;20221;-76
2023/06/04 01:09:51;;;;;;;2.67;1.00;;;15.70;40.40;;;;;;4994273;28;20190;-76
2023/06/04 01:12:16;;;;;;;3.15;1.30;;;15.60;40.40;;;;;;5010639;28;20574;-75
2023/06/04 01:14:43;;;;;;;1.70;0.80;;;15.60;40.50;;;;;;5009951;28;20217;-75
2023/06/04 01:17:37;;;;;;;2.17;1.00;;;15.60;40.70;;;;;;5010751;28;20543;-75
2023/06/04 01:20:12;;;;;;;2.30;1.02;;;15.60;40.90;;;;;;4974508;28;20663;-76
2023/06/04 01:22:42;;;;;;;2.35;1.50;;;15.50;40.70;;;;;;5013517;28;20173;-76
2023/06/04 01:25:20;;;;;;;1.92;0.90;;;15.50;41.00;;;;;;5004896;28;20229;-76
2023/06/04 01:27:52;;;;;;;2.88;1.40;;;15.40;41.20;;;;;;5003608;28;20189;-76
2023/06/04 01:30:24;;;;;;;2.60;1.10;;;15.40;41.20;;;;;;5010010;28;20270;-76
2023/06/04 01:32:50;;;;;;;2.28;0.90;;;15.40;42.00;;;;;;5014963;28;20226;-75
2023/06/04 01:35:15;;;;;;;1.83;1.03;;;15.40;41.30;;;;;;5012064;28;20951;-76
2023/06/04 01:37:41;;;;;;;2.23;1.17;;;15.40;41.40;;;;;;5010389;28;20597;-76
2023/06/04 01:40:11;;;;;;;5.13;1.30;;;15.30;41.40;;;;;;4993930;28;20236;-76
2023/06/04 01:42:36;;;;;;;1.90;0.77;;;15.30;41.50;;;;;;4990105;28;20221;-76
2023/06/04 01:45:03;;;;;;;2.47;0.93;;;15.20;41.60;;;;;;5007366;28;20627;-75
2023/06/04 01:47:28;;;;;;;1.80;0.98;;;15.20;41.60;;;;;;4990647;28;20265;-76
2023/06/04 01:49:55;;;;;;;2.30;1.23;;;15.20;41.80;;;;;;4974452;28;20349;-76
2023/06/04 01:52:21;;;;;;;2.33;0.90;;;15.20;41.90;;;;;;4990560;28;20283;-75
2023/06/04 01:54:52;;;;;;;1.65;0.80;;;15.20;42.00;;;;;;4992243;28;20214;-76
2023/06/04 01:57:24;;;;;;;2.15;1.10;;;15.10;42.00;;;;;;4990481;28;20233;-76
2023/06/04 01:59:50;;;;;;;12.55;1.33;;;15.10;42.40;;;;;;4992358;28;20621;-76
2023/06/04 02:02:16;;;;;;;3.22;0.90;;;15.10;42.20;;;;;;5010148;28;20657;-75
2023/06/04 02:04:42;;;;;;;4.50;1.00;;;15.00;42.30;;;;;;4993624;28;20206;-75
2023/06/04 02:07:13;;;;;;;2.10;0.90;;;15.00;42.40;;;;;;4993391;28;20182;-76
2023/06/04 02:09:40;;;;;;;1.98;1.05;;;15.00;42.60;;;;;;5013843;28;20190;-75
2023/06/04 02:12:06;;;;;;;2.08;0.90;;;14.90;42.50;;;;;;5009899;28;20174;-76
2023/06/04 02:14:32;;;;;;;1.88;1.00;;;14.90;42.60;;;;;;5010252;28;20544;-76
2023/06/04 02:16:57;;;;;;;1.90;1.00;;;14.80;42.50;;;;;;4993884;28;20265;-75
2023/06/04 02:19:27;;;;;;;2.17;1.10;;;14.80;42.70;;;;;;4993215;28;20198;-75
2023/06/04 02:21:53;;;;;;;3.75;1.00;;;14.80;42.90;;;;;;5010898;28;20273;-76
2023/06/04 02:24:19;;;;;;;1.80;0.98;;;14.80;42.90;;;;;;5009540;28;20280;-75
2023/06/04 02:26:46;;;;;;;2.17;1.13;;;14.70;43.00;;;;;;5032234;23;20254;-78
2023/06/04 02:29:12;;;;;;;2.38;1.00;;;14.70;43.10;;;;;;4993495;28;20674;-79
2023/06/04 02:31:37;;;;;;;3.27;1.10;;;14.70;43.20;;;;;;4997997;28;20174;-78
2023/06/04 02:34:03;;;;;;;1.90;1.20;;;14.70;43.30;;;;;;4974741;28;20605;-79
2023/06/04 02:36:30;;;;;;;2.27;1.00;;;14.60;43.40;;;;;;5007946;28;20289;-79
2023/06/04 02:38:56;;;;;;;1.98;1.00;;;14.60;43.50;;;;;;4977666;28;20593;-79
2023/06/04 02:41:23;;;;;;;2.00;1.10;;;14.60;43.60;;;;;;4992411;28;20170;-79
2023/06/04 02:43:49;;;;;;;2.67;1.23;;;14.50;43.60;;;;;;4974279;28;20613;-79
2023/06/04 02:46:15;;;;;;;3.50;1.17;;;14.50;43.70;;;;;;4974091;28;20769;-79
2023/06/04 02:48:40;;;;;;;2.93;1.00;;;14.50;44.00;;;;;;4973605;28;20623;-79
2023/06/04 02:51:10;;;;;;;2.83;1.00;;;14.50;44.00;;;;;;4973871;28;20274;-79
2023/06/04 02:53:36;;;;;;;2.67;1.20;;;14.40;44.00;;;;;;4991228;28;20197;-79
2023/06/04 02:56:02;;;;;;;2.30;0.82;;;14.40;44.20;;;;;;5008899;28;20273;-79
2023/06/04 02:58:28;;;;;;;2.20;0.90;;;14.40;44.30;;;;;;5010983;28;20166;-79
2023/06/04 03:00:55;;;;;;;3.03;0.93;;;14.40;44.40;;;;;;5009631;28;20580;-78
2023/06/04 03:03:22;;;;;;;1.50;0.80;;;14.30;44.50;;;;;;4976633;28;20182;-78
2023/06/04 03:05:49;;;;;;;3.17;1.00;;;14.30;44.60;;;;;;4977196;28;20218;-78
2023/06/04 03:08:15;;;;;;;2.00;0.93;;;14.30;44.60;;;;;;5013011;28;20242;-79
2023/06/04 03:10:41;;;;;;;3.88;1.70;;;14.20;44.60;;;;;;5011042;28;20182;-78
2023/06/04 03:13:06;;;;;;;2.50;1.00;;;14.20;44.80;;;;;;5026128;28;20225;-79
2023/06/04 03:15:32;;;;;;;1.73;0.90;;;14.20;45.00;;;;;;5010135;28;20170;-78
2023/06/04 03:17:58;;;;;;;3.00;1.00;;;14.10;45.00;;;;;;5026255;28;20255;-78
2023/06/04 03:20:24;;;;;;;2.73;1.00;;;14.10;45.10;;;;;;4976293;28;20174;-79
2023/06/04 03:22:51;;;;;;;2.58;1.10;;;14.10;45.20;;;;;;5009456;28;20174;-79
2023/06/04 03:25:17;;;;;;;2.35;1.25;;;14.00;45.30;;;;;;4992953;28;20217;-79
2023/06/04 03:27:42;;;;;;;3.80;1.07;;;14.00;45.40;;;;;;4992657;28;20206;-79
2023/06/04 03:30:09;;;;;;;1.70;0.90;;;14.00;45.50;;;;;;5023970;28;20592;-79
2023/06/04 03:32:45;;;;;;;3.20;1.20;;;14.00;45.60;;;;;;4985035;28;20178;-79
2023/06/04 03:35:11;;;;;;;1.63;0.80;;;13.90;45.60;;;;;;5003188;28;20257;-79
2023/06/04 03:37:36;;;;;;;2.73;1.00;;;13.90;45.70;;;;;;4996007;28;20757;-79
2023/06/04 03:40:05;;;;;;;1.90;1.00;;;13.90;45.90;;;;;;4980236;28;20174;-79
2023/06/04 03:42:32;;;;;;;2.00;1.10;;;13.90;46.00;;;;;;4995461;28;20601;-79
2023/06/04 03:44:59;;;;;;;2.20;0.90;;;13.90;46.10;;;;;;5000615;28;20186;-79
2023/06/04 03:47:26;;;;;;;3.10;0.80;;;13.90;46.20;;;;;;4996102;28;20206;-79
2023/06/04 03:49:52;;;;;;;2.77;1.00;;;13.90;46.30;;;;;;4979964;28;20174;-79
2023/06/04 03:52:18;;;;;;;3.47;1.43;;;13.90;46.40;;;;;;4996039;28;20174;-79
2023/06/04 03:54:44;;;;;;;2.60;1.10;;;13.90;46.50;;;;;;4980145;28;20691;-79
2023/06/04 03:57:10;;;;;;;2.27;0.97;;;13.90;46.50;;;;;;4995701;28;20750;-79
2023/06/04 03:59:36;;;;;;;3.53;0.90;;;13.90;46.60;;;;;;4979666;28;20227;-79
2023/06/04 04:02:01;;;;;;;2.10;1.10;;;13.90;46.70;;;;;;4995879;28;20630;-78
2023/06/04 04:04:28;;;;;;;2.00;1.17;;;13.90;46.80;;;;;;4995553;28;20593;-79
2023/06/04 04:06:54;;;;;;;2.00;1.00;;;13.90;46.90;;;;;;4980067;28;20190;-78
2023/06/04 04:09:20;;;;;;;3.80;1.10;;;13.90;46.90;;;;;;4979583;28;20162;-78
2023/06/04 04:11:45;;;;;;;1.87;0.93;;;14.00;47.60;;;;;;4979429;28;20185;-78
2023/06/04 04:14:12;;;;;;;1.92;0.90;;;14.00;47.10;;;;;;4979704;28;20536;-78
2023/06/04 04:16:37;;;;;;;1.90;1.00;;;14.00;47.10;;;;;;5013416;28;20193;-78
2023/06/04 04:19:04;;;;;;;2.70;1.00;;;14.10;47.30;;;;;;4996142;28;20592;-79
2023/06/04 04:21:29;;;;;;;1.90;1.00;;;14.10;47.30;;;;;;4980107;28;20178;-78
2023/06/04 04:23:55;;;;;;;1.90;0.90;;;14.20;47.40;;;;;;4983163;28;20273;-78
2023/06/04 04:26:22;;;;;;;2.20;1.20;;;14.40;47.90;;;;;;4978431;28;20210;-78
2023/06/04 04:28:57;;;;;;;2.00;0.73;;;14.70;48.40;;;;;;4995663;28;20174;-79
2023/06/04 04:31:26;;;;;;;2.57;0.83;;;15.10;48.90;;;;;;5011195;28;20577;-79
2023/06/04 04:33:52;;;;;;;1.80;0.80;;;15.50;49.10;;;;;;4979151;28;20577;-79
2023/06/04 04:36:18;;;;;;;2.63;1.13;;;15.80;48.80;;;;;;4991859;28;20614;-79
2023/06/04 04:38:53;;;;;;;1.70;1.20;;;16.10;48.60;;;;;;4976292;28;20590;-79
2023/06/04 04:41:23;;;;;;;2.23;0.90;;;16.30;48.40;;;;;;5008265;28;20586;-80
2023/06/04 04:43:53;;;;;;;2.30;0.83;;;16.50;48.60;;;;;;5008012;28;20574;-79
2023/06/04 04:46:23;;;;;;;1.70;0.90;;;16.60;47.70;;;;;;5007587;28;20757;-79
2023/06/04 04:48:50;;;;;;;2.10;1.00;;;16.60;47.40;;;;;;4975535;28;21012;-78
2023/06/04 04:51:16;;;;;;;2.00;0.83;;;16.70;47.40;;;;;;5007921;28;20621;-79
2023/06/04 04:53:42;;;;;;;3.27;0.90;;;16.80;47.40;;;;;;4991424;28;20190;-78
2023/06/04 04:56:08;;;;;;;1.80;0.97;;;16.90;47.50;;;;;;4992189;28;20255;-78
2023/06/04 04:58:38;;;;;;;1.93;0.83;;;17.10;47.80;;;;;;5013026;28;20585;-79
2023/06/04 05:01:04;;;;;;;2.20;0.90;;;17.30;47.90;;;;;;4991853;28;20649;-79
2023/06/04 05:03:30;;;;;;;1.50;0.70;;;17.60;48.20;;;;;;4991293;28;20640;-79
2023/06/04 05:05:56;;;;;;;2.13;0.80;;;17.90;48.20;;;;;;4979587;28;20980;-79
2023/06/04 05:08:22;;;;;;;1.80;0.90;;;18.10;48.10;;;;;;4994529;28;20262;-79
2023/06/04 05:10:48;;;;;;;1.63;0.70;;;18.30;48.10;;;;;;4994212;28;21069;-78
2023/06/04 05:13:15;;;;;;;2.87;0.80;;;18.60;48.10;;;;;;4994856;28;20170;-80
2023/06/04 05:15:54;;;;;;;1.80;0.73;;;18.90;48.00;;;;;;4978112;28;21054;-79
2023/06/04 05:18:28;;;;;;;1.70;0.73;;;19.10;47.60;;;;;;4978627;28;20578;-79
2023/06/04 05:20:55;;;;;;;4.13;0.70;;;19.20;47.00;;;;;;4977569;28;20593;-78
2023/06/04 05:23:22;;;;;;;1.83;0.67;;;19.30;46.80;;;;;;4971440;28;20590;-78
2023/06/04 05:25:50;;;;;;;1.40;0.77;;;19.40;46.70;;;;;;4977725;28;20643;-78
2023/06/04 05:28:17;;;;;;;2.17;0.60;;;19.60;46.60;;;;;;4978143;28;20577;-79
2023/06/04 05:30:43;;;;;;;2.40;1.00;;;19.60;46.30;;;;;;5010618;28;20580;-79
2023/06/04 05:33:17;;;;;;;1.97;0.90;;;19.70;46.10;;;;;;5010230;28;20581;-79
2023/06/04 05:35:49;;;;;;;4.13;0.90;;;19.80;46.10;;;;;;4998796;28;20604;-79
2023/06/04 05:38:17;;;;;;;2.43;1.10;;;19.70;45.90;;;;;;4977710;28;21064;-79
2023/06/04 05:40:45;;;;;;;2.27;0.80;;;19.80;46.00;;;;;;4994017;28;20582;-79
2023/06/04 05:43:11;;;;;;;1.80;0.70;;;19.80;45.90;;;;;;4977498;28;20600;-79
2023/06/04 05:45:37;;;;;;;2.53;0.70;;;19.80;46.00;;;;;;4993535;28;20986;-78
2023/06/04 05:48:04;;;;;;;1.63;0.70;;;20.00;46.60;;;;;;4977204;28;20574;-79
2023/06/04 05:50:31;;;;;;;2.07;0.97;;;20.30;47.10;;;;;;4993994;28;20577;-79
2023/06/04 05:52:57;;;;;;;1.60;0.87;;;20.80;47.60;;;;;;4994067;28;20613;-79
2023/06/04 05:55:24;;;;;;;1.97;1.00;;;21.30;47.80;;;;;;4977638;28;20596;-79
2023/06/04 05:57:53;;;;;;;1.53;0.70;;;22.10;48.30;;;;;;4976721;28;20667;-80
2023/06/04 06:00:19;;;;;;;1.60;0.80;;;23.20;48.40;;;;;;4993742;28;20589;-78
2023/06/04 06:02:49;;;;;;;2.87;1.20;;;24.20;48.30;;;;;;4993782;28;20578;-79
2023/06/04 06:05:27;;;;;;;2.53;0.83;;;25.30;48.10;;;;;;4993560;28;20616;-79
2023/06/04 06:07:53;;;;;;;2.10;0.70;;;26.50;48.10;;;;;;5011034;28;20615;-79
2023/06/04 06:10:19;;;;;;;1.80;0.60;;;27.50;46.80;;;;;;4977083;28;20232;-78
2023/06/04 06:12:45;;;;;;;7.93;1.10;;;28.50;46.00;;;;;;5003059;28;20186;-78
2023/06/04 06:15:12;;;;;;;3.17;0.80;;;29.40;45.10;;;;;;4994415;28;20589;-78
2023/06/04 06:17:39;;;;;;;4.60;0.73;;;30.20;44.10;;;;;;4993189;28;20234;-78
2023/06/04 06:20:07;;;;;;;2.13;0.70;;;31.00;43.40;;;;;;4993185;28;20632;-79
2023/06/04 06:22:33;;;;;;;1.67;0.70;;;31.70;42.60;;;;;;5009850;28;20187;-78
2023/06/04 06:24:59;;;;;;;2.07;0.90;;;32.40;41.70;;;;;;4993416;28;20720;-78
2023/06/04 06:27:25;;;;;;;1.97;0.87;;;33.10;41.10;;;;;;5010142;28;21140;-79
2023/06/04 06:29:51;;;;;;;2.00;0.80;;;33.70;40.00;;;;;;4993655;28;20183;-79
2023/06/04 06:32:17;;;;;;;1.90;0.73;;;34.20;38.50;;;;;;4993669;28;20180;-79
2023/06/04 06:34:42;;;;;;;2.80;0.80;;;34.60;38.20;;;;;;5010623;28;20185;-78
2023/06/04 06:37:08;;;;;;;2.20;0.70;;;35.10;37.60;;;;;;5011376;28;20704;-79
2023/06/04 06:39:34;;;;;;;2.00;0.90;;;35.40;36.70;;;;;;5010829;28;20178;-78
2023/06/04 06:41:59;;;;;;;1.50;0.83;;;35.70;36.00;;;;;;5010424;28;20189;-78
2023/06/04 06:44:32;;;;;;;1.80;0.80;;;36.10;35.80;;;;;;4977126;28;20189;-79
2023/06/04 06:46:58;;;;;;;1.60;0.73;;;36.30;35.10;;;;;;5011197;28;21150;-78
2023/06/04 06:49:23;;;;;;;1.50;0.73;;;36.60;34.80;;;;;;5015675;28;20188;-79
2023/06/04 06:51:49;;;;;;;2.00;0.80;;;37.00;34.40;;;;;;4993304;28;20236;-79
2023/06/04 06:54:21;;;;;;;1.93;0.80;;;37.20;34.10;;;;;;4993784;28;20170;-79
2023/06/04 06:56:50;;;;;;;1.90;0.87;;;37.50;33.70;;;;;;5010525;28;20248;-78
2023/06/04 06:59:16;;;;;;;2.37;0.90;;;37.90;33.40;;;;;;4992840;28;20601;-79
2023/06/04 07:01:41;;;;;;;2.23;0.80;;;38.10;32.80;;;;;;5010979;28;20604;-79
2023/06/04 07:04:08;;;;;;;1.50;0.70;;;38.40;32.20;;;;;;5011422;28;20186;-78
2023/06/04 07:06:36;;;;;;;2.03;0.90;;;38.70;31.60;;;;;;4993459;28;20206;-78
2023/06/04 07:09:05;;;;;;;2.73;0.73;;;38.90;31.20;;;;;;5012374;28;20947;-78
2023/06/04 07:11:31;;;;;;;2.13;0.70;;;39.10;31.00;;;;;;4998178;28;20592;-78
2023/06/04 07:13:57;;;;;;;2.17;0.80;;;39.30;30.60;;;;;;4998203;28;20581;-79
2023/06/04 07:16:23;;;;;;;1.97;0.90;;;39.50;30.00;;;;;;5015488;28;21187;-78
2023/06/04 07:18:51;;;;;;;1.80;1.00;;;39.70;29.80;;;;;;5016102;28;20224;-80
2023/06/04 07:21:19;;;;;;;1.70;0.70;;;39.90;29.60;;;;;;5013481;28;20265;-79
2023/06/04 07:23:47;;;;;;;2.27;1.00;;;40.10;29.20;;;;;;5012847;28;20597;-79
2023/06/04 07:26:12;;;;;;;2.10;0.80;;;40.40;28.60;;;;;;5030455;28;21003;-78
2023/06/04 07:28:38;;;;;;;1.50;0.90;;;40.50;28.50;;;;;;5032594;28;20573;-79
2023/06/04 07:31:04;;;;;;;2.00;0.80;;;40.60;28.40;;;;;;5031517;28;20205;-79
2023/06/04 07:33:30;;;;;;;1.50;0.90;;;40.70;28.30;;;;;;4996869;28;20673;-79
2023/06/04 07:35:55;;;;;;;1.80;0.80;;;40.90;28.00;;;;;;5013947;28;20202;-79
2023/06/04 07:38:21;;;;;;;1.60;0.70;;;41.00;27.70;;;;;;5014713;28;20208;-78
2023/06/04 07:40:47;;;;;;;1.47;0.70;;;41.20;27.70;;;;;;4995910;28;20178;-78
2023/06/04 07:43:13;;;;;;;1.70;0.90;;;41.30;27.00;;;;;;4985200;28;20313;-79
2023/06/04 07:45:39;;;;;;;1.70;0.77;;;41.40;27.20;;;;;;5013573;28;21074;-79
2023/06/04 07:48:05;;;;;;;2.60;0.73;;;41.40;26.40;;;;;;5013288;28;20182;-79
2023/06/04 07:50:30;;;;;;;1.77;0.97;;;41.30;26.50;;;;;;4979261;28;20182;-79
2023/06/04 07:52:56;;;;;;;5.60;1.00;;;41.30;26.30;;;;;;5013862;28;21101;-79
2023/06/04 07:55:22;;;;;;;2.23;1.00;;;41.40;26.50;;;;;;4996354;28;20681;-79
2023/06/04 07:57:48;;;;;;;2.37;0.80;;;41.50;26.20;;;;;;4979791;28;20568;-79
2023/06/04 08:00:14;;;;;;;1.70;0.70;;;41.60;26.10;;;;;;5013706;28;20217;-79
2023/06/04 08:02:40;;;;;;;2.73;0.80;;;41.60;26.10;;;;;;5000767;28;20201;-79
2023/06/04 08:05:06;;;;;;;2.30;0.80;;;41.70;25.70;;;;;;4996099;28;20658;-79
2023/06/04 08:07:31;;;;;;;1.80;0.80;;;41.70;25.80;;;;;;5012983;28;20233;-78
2023/06/04 08:09:58;;;;;;;2.13;0.70;;;41.70;25.60;;;;;;4995824;28;20577;-79
2023/06/04 08:12:23;;;;;;;2.63;0.77;;;41.70;25.70;;;;;;5012564;28;20605;-79
2023/06/04 08:14:50;;;;;;;1.70;0.60;;;41.70;25.10;;;;;;4995984;28;20179;-78
2023/06/04 08:17:16;;;;;;;2.30;0.73;;;41.80;25.30;;;;;;5013526;28;20244;-78
2023/06/04 08:19:41;;;;;;;2.00;0.80;;;41.90;25.40;;;;;;5012716;28;20593;-78
2023/06/04 08:22:09;;;;;;;1.80;0.80;;;42.00;25.30;;;;;;4995250;28;20224;-78
2023/06/04 08:24:34;;;;;;;2.63;0.80;;;42.10;25.00;;;;;;5012999;28;20178;-78
2023/06/04 08:27:00;;;;;;;1.60;0.70;;;42.20;24.40;;;;;;4995345;28;21244;-78
2023/06/04 08:29:27;;;;;;;1.37;0.60;;;42.20;24.40;;;;;;4995313;28;20235;-78
2023/06/04 08:31:52;;;;;;;3.00;0.80;;;42.20;24.20;;;;;;4995327;28;20585;-78
2023/06/04 08:34:18;;;;;;;1.50;0.60;;;42.40;24.10;;;;;;5009909;28;20181;-78
2023/06/04 08:36:44;;;;;;;3.10;0.90;;;42.40;24.50;;;;;;5013080;28;20198;-79
2023/06/04 08:39:10;;;;;;;2.17;0.70;;;42.50;24.10;;;;;;5017466;28;20234;-78
2023/06/04 08:41:52;;;;;;;2.83;1.00;;;42.60;23.70;;;;;;5012549;28;20626;-78
2023/06/04 08:44:18;;;;;;;1.60;0.70;;;42.60;23.80;;;;;;5013613;28;20182;-75
2023/06/04 08:46:44;;;;;;;1.43;0.70;;;42.50;23.40;;;;;;5012377;28;21057;-75
2023/06/04 08:49:12;;;;;;;1.60;0.70;;;42.40;23.20;;;;;;5012893;28;20258;-75
2023/06/04 08:51:38;;;;;;;3.20;1.20;;;42.00;22.70;;;;;;4994569;28;20623;-75
2023/06/04 08:54:05;;;;;;;1.80;1.10;;;41.70;22.50;;;;;;4995271;28;20621;-75
2023/06/04 08:56:32;;;;;;;1.70;0.80;;;41.50;22.50;;;;;;5012073;28;21350;-75
2023/06/04 08:59:03;;;;;;;1.80;0.80;;;41.30;22.10;;;;;;4994991;28;20584;-76
2023/06/04 09:01:31;;;;;;;2.47;0.80;;;41.30;22.80;;;;;;5012323;28;20998;-76
2023/06/04 09:03:59;;;;;;;1.80;0.80;;;41.30;22.30;;;;;;5012276;28;20569;-76
2023/06/04 09:06:28;;;;;;;1.40;0.70;;;40.70;21.80;;;;;;4995025;28;21196;-76
2023/06/04 09:09:00;;;;;;;3.67;0.90;;;40.30;22.00;;;;;;4974764;28;21171;-75
2023/06/04 09:11:39;;;;;;;2.17;0.67;;;40.30;22.30;;;;;;4992636;28;20601;-75
2023/06/04 09:14:08;;;;;;;1.70;0.80;;;40.30;22.20;;;;;;4994444;28;20585;-75
2023/06/04 09:16:47;;;;;;;2.37;0.70;;;40.40;22.70;;;;;;4994608;28;20632;-75
2023/06/04 09:19:14;;;;;;;2.47;0.70;;;40.60;22.70;;;;;;5012048;28;20573;-75
2023/06/04 09:21:54;;;;;;;1.50;0.80;;;40.80;22.90;;;;;;5011931;28;20967;-74
2023/06/04 09:24:21;;;;;;;1.70;0.70;;;40.80;21.80;;;;;;4994268;28;20584;-75
2023/06/04 09:26:47;;;;;;;1.83;0.70;;;40.80;22.50;;;;;;5011600;28;20647;-75
2023/06/04 09:29:14;;;;;;;1.50;0.80;;;41.00;22.50;;;;;;5010757;28;20592;-76
2023/06/04 09:31:40;;;;;;;4.30;1.00;;;41.20;22.30;;;;;;5011184;28;20600;-76
2023/06/04 09:34:06;;;;;;;1.50;0.80;;;41.30;21.90;;;;;;5011867;28;20585;-75
2023/06/04 09:36:36;;;;;;;1.77;0.80;;;41.00;21.10;;;;;;5011460;28;20198;-76
2023/06/04 09:39:26;;;;;;;2.27;0.70;;;40.60;21.10;;;;;;5011717;28;20976;-75
2023/06/04 09:42:02;;;;;;;2.70;0.70;;;40.30;21.10;;;;;;4993531;28;20613;-75
2023/06/04 09:44:31;;;;;;;1.80;0.80;;;39.70;20.00;;;;;;4994587;28;20941;-76
2023/06/04 09:46:58;;;;;;;2.27;0.67;;;39.10;20.80;;;;;;4977536;28;20755;-75
2023/06/04 09:49:23;;;;;;;2.20;1.00;;;38.80;20.90;;;;;;4994275;28;20623;-75
2023/06/04 09:51:49;;;;;;;3.90;0.80;;;38.80;20.90;;;;;;5011278;28;21151;-75
2023/06/04 09:54:15;;;;;;;1.90;0.70;;;38.70;20.80;;;;;;4994511;28;20193;-75
2023/06/04 09:56:42;;;;;;;3.63;0.70;;;38.80;21.30;;;;;;5011681;28;20540;-76
2023/06/04 09:59:12;;;;;;;2.63;0.77;;;39.00;21.60;;;;;;4993804;28;20585;-75
2023/06/04 10:01:43;;;;;;;1.40;0.60;;;38.90;21.20;;;;;;4994035;28;20651;-75
2023/06/04 10:04:11;;;;;;;2.43;0.80;;;38.80;21.00;;;;;;5010847;28;20608;-75
2023/06/04 10:06:39;;;;;;;3.97;0.60;;;38.90;21.30;;;;;;4993152;28;21213;-75
2023/06/04 10:09:07;;;;;;;1.60;0.80;;;38.90;21.10;;;;;;5011135;28;20664;-75
2023/06/04 10:11:41;;;;;;;1.97;0.90;;;39.00;21.40;;;;;;4993821;28;20585;-74
2023/06/04 10:14:27;;;;;;;3.10;0.90;;;39.00;20.80;;;;;;4993777;28;20597;-75
2023/06/04 10:16:56;;;;;;;1.50;0.60;;;38.80;20.70;;;;;;5011356;28;20700;-75
2023/06/04 10:19:23;;;;;;;1.70;0.70;;;38.70;20.80;;;;;;5010392;28;21115;-75
2023/06/04 10:21:49;;;;;;;1.53;0.60;;;38.80;20.70;;;;;;5010811;28;20654;-75
2023/06/04 10:24:15;;;;;;;2.27;0.80;;;38.60;20.50;;;;;;4979098;28;20593;-75
2023/06/04 10:26:42;;;;;;;1.57;0.77;;;38.40;20.40;;;;;;4984535;28;20661;-75
2023/06/04 10:29:08;;;;;;;3.67;0.60;;;38.50;20.60;;;;;;4993797;28;20592;-76
2023/06/04 10:31:36;;;;;;;2.07;0.90;;;38.80;21.10;;;;;;5010521;28;20576;-75
2023/06/04 10:34:03;;;;;;;1.80;0.70;;;38.90;20.50;;;;;;4994080;28;20928;-76
2023/06/04 10:36:28;;;;;;;1.50;0.60;;;39.00;20.60;;;;;;5010011;28;21196;-75
2023/06/04 10:38:55;;;;;;;2.53;0.70;;;39.10;20.80;;;;;;5011098;28;20636;-76
2023/06/04 10:41:22;;;;;;;2.20;0.80;;;39.20;19.90;;;;;;4992498;28;20716;-75
2023/06/04 10:43:52;;;;;;;1.40;0.63;;;38.90;20.30;;;;;;4987871;28;20608;-75
2023/06/04 10:46:19;;;;;;;1.60;0.70;;;38.80;20.20;;;;;;4997216;28;21228;-76
2023/06/04 10:48:50;;;;;;;2.90;0.80;;;38.70;20.50;;;;;;4997489;28;20585;-75
2023/06/04 10:51:29;;;;;;;1.40;0.70;;;38.70;20.40;;;;;;4997165;28;20581;-75
2023/06/04 10:53:55;;;;;;;1.43;0.70;;;38.60;20.20;;;;;;4996943;28;20703;-75
2023/06/04 10:56:29;;;;;;;1.93;0.73;;;38.30;20.20;;;;;;4980950;28;20624;-75
2023/06/04 10:58:55;;;;;;;1.73;0.80;;;38.10;20.60;;;;;;4997048;28;20625;-76
2023/06/04 11:01:31;;;;;;;1.80;0.60;;;38.00;20.60;;;;;;4996481;28;20629;-75
2023/06/04 11:03:58;;;;;;;1.90;0.70;;;37.90;20.20;;;;;;5014257;28;20589;-75
2023/06/04 11:06:27;;;;;;;1.50;0.70;;;37.80;20.10;;;;;;5014469;28;20648;-75
2023/06/04 11:09:05;;;;;;;1.83;0.80;;;37.80;20.50;;;;;;5014392;28;20576;-76
2023/06/04 11:11:31;;;;;;;1.80;0.70;;;37.60;20.20;;;;;;4980753;28;20602;-76
2023/06/04 11:14:12;;;;;;;2.10;1.00;;;37.50;20.40;;;;;;4980689;28;20581;-76
2023/06/04 11:16:38;;;;;;;1.67;0.70;;;37.50;20.40;;;;;;4997108;28;20608;-76
2023/06/04 11:19:04;;;;;;;2.00;0.70;;;37.60;20.90;;;;;;5014797;28;20599;-75
2023/06/04 11:21:30;;;;;;;4.70;0.90;;;37.70;20.70;;;;;;5013751;28;20580;-76
2023/06/04 11:23:58;;;;;;;2.37;0.60;;;37.70;20.90;;;;;;5014616;28;20964;-76
2023/06/04 11:26:34;;;;;;;2.50;0.70;;;37.80;20.70;;;;;;5013510;28;20395;-76
2023/06/04 11:29:01;;;;;;;9.20;0.70;;;37.80;20.70;;;;;;5014505;28;20573;-75
2023/06/04 11:31:27;;;;;;;3.13;0.70;;;37.70;20.30;;;;;;4979804;28;20585;-76
2023/06/04 11:33:53;;;;;;;1.90;0.70;;;37.50;20.50;;;;;;5014248;28;20581;-76
2023/06/04 11:36:30;;;;;;;4.90;0.87;;;37.30;20.10;;;;;;4995966;28;21267;-75
2023/06/04 11:39:05;;;;;;;2.33;1.00;;;36.90;20.70;;;;;;4996799;28;20221;-76
2023/06/04 11:41:37;;;;;;;1.87;0.60;;;36.70;20.50;;;;;;5013292;28;20631;-75
2023/06/04 11:44:05;;;;;;;3.00;0.73;;;36.50;20.50;;;;;;5020307;28;20573;-75
2023/06/04 11:46:34;;;;;;;2.83;0.70;;;36.40;20.80;;;;;;5013992;28;20289;-75
2023/06/04 11:49:01;;;;;;;1.60;0.70;;;36.30;20.70;;;;;;4996013;28;20596;-75
2023/06/04 11:51:27;;;;;;;2.83;0.80;;;36.30;20.90;;;;;;5013526;28;20616;-75
2023/06/04 11:53:53;;;;;;;2.40;0.93;;;36.20;20.30;;;;;;4979668;28;20632;-75
2023/06/04 11:56:19;;;;;;;3.10;0.70;;;35.90;20.40;;;;;;5013192;28;20613;-75
2023/06/04 11:58:46;;;;;;;3.27;0.90;;;35.80;20.40;;;;;;5013174;28;20627;-75
2023/06/04 12:01:13;;;;;;;1.70;0.70;;;35.70;20.60;;;;;;5013331;28;20738;-76
2023/06/04 12:03:42;;;;;;;1.60;0.80;;;35.60;20.70;;;;;;5013454;28;20663;-75
2023/06/04 12:06:12;;;;;;;8.03;0.97;;;35.40;20.70;;;;;;5013458;28;20665;-76
2023/06/04 12:08:51;;;;;;;2.53;0.80;;;35.30;21.10;;;;;;5013684;28;20589;-76
2023/06/04 12:11:30;;;;;;;2.17;0.80;;;35.20;21.10;;;;;;4995204;28;20588;-75
2023/06/04 12:13:58;;;;;;;1.70;0.80;;;34.80;21.10;;;;;;4996086;28;20627;-75
2023/06/04 12:16:24;;;;;;;2.00;0.70;;;34.40;21.00;;;;;;4995454;28;20626;-76
2023/06/04 12:18:50;;;;;;;4.23;0.80;;;34.00;21.60;;;;;;4996129;28;20640;-76
2023/06/04 12:21:27;;;;;;;1.70;0.80;;;33.60;21.20;;;;;;5012697;28;20572;-75
2023/06/04 12:24:07;;;;;;;2.17;0.90;;;33.30;21.40;;;;;;5013440;28;20580;-75
2023/06/04 12:26:37;;;;;;;3.40;0.80;;;33.10;21.90;;;;;;4994872;28;20644;-76
2023/06/04 12:29:17;;;;;;;3.53;0.90;;;33.00;21.90;;;;;;4995508;28;20682;-76
2023/06/04 12:31:45;;;;;;;5.90;1.93;;;33.00;22.00;;;;;;5012608;28;20582;-75
2023/06/04 12:34:12;;;;;;;1.73;0.70;;;32.90;22.00;;;;;;5012772;28;20970;-76
2023/06/04 12:36:38;;;;;;;2.73;0.80;;;32.70;21.90;;;;;;4995473;28;20619;-75
2023/06/04 12:39:05;;;;;;;2.23;0.90;;;32.50;21.90;;;;;;5012710;28;20926;-75
2023/06/04 12:41:31;;;;;;;2.03;0.80;;;32.30;22.10;;;;;;4995010;28;20210;-76
2023/06/04 12:43:57;;;;;;;1.83;0.80;;;32.10;22.00;;;;;;4995109;28;20651;-75
2023/06/04 12:46:24;;;;;;;1.77;0.90;;;31.70;22.00;;;;;;5012872;28;21045;-76
2023/06/04 12:48:50;;;;;;;3.57;0.83;;;31.40;22.00;;;;;;5012539;28;20596;-75
2023/06/04 12:51:16;;;;;;;2.03;1.00;;;31.10;22.00;;;;;;4978791;28;20582;-75